• Join FlightAware (Why Join?)
  • Login
  • US Flag 
01:08PM EDT


 

Airport Tracker/Info


-or-


 

Live Flight TrackerFlight Track Log ✈ N832R ✈ 14-Nov-2013 ✈ KFXY - KEKM

Flight Track Log - Related Links

Times and Time Zones

All times are in EST time to prevent confusion due to time zone crossing. See the N832R flight status page for this flight to view local times or setup timezone preferences in your user account.

Time Position Orientation Groundspeed Altitude Reporting Facility
EST Latitude Longitude Course Direction KTS MPH feet Rate Location/Type
03:36PM 43.1839 -93.5025 105° East 262 302 6,100  Level Minneapolis Center
03:37PM 43.1719 -93.3925 98° East 291 335 8,700 2,700 Climbing Minneapolis Center
03:38PM 43.1539 -93.2789 102° East 302 348 11,700 2,880 Climbing Minneapolis Center
03:39PM 43.1342 -93.1533 102° East 332 382 14,700 1,560 Climbing Minneapolis Center
03:40PM 43.1128 -93.0094 101° East 372 428 15,000 480 Climbing Minneapolis Center
03:41PM 43.1106 -92.8716 105° East  Level Estimated
03:41PM 43.0906 -92.8611 102° East 396 456 15,700  Level Minneapolis Center
03:42PM 43.0650 -92.6936 102° East 385 443 19,000 2,760 Climbing Minneapolis Center
03:43PM 43.0439 -92.5564 102° East 375 432 21,500 2,280 Climbing Minneapolis Center
03:44PM 43.0158 -92.3858 103° East 382 440 24,100 2,160 Climbing Chicago Center
03:45PM 42.9911 -92.2339 102° East 401 461 26,400 2,160 Climbing Chicago Center
03:46PM 42.9717 -92.1111 102° East 416 479 28,300 2,520 Climbing Minneapolis Center
03:47PM 42.9422 -91.9244 102° East 421 484 31,300 2,340 Climbing Minneapolis Center
03:48PM 42.9172 -91.7719 103° East 414 476 33,600 2,160 Climbing Chicago Center
03:49PM 42.8869 -91.5861 102° East 413 475 36,200 2,160 Climbing Chicago Center
03:50PM 42.8617 -91.4344 103° East 405 466 38,100 1,380 Climbing Chicago Center
03:51PM 42.8361 -91.2808 103° East 412 474 39,100 960 Climbing Chicago Center
03:53PM 42.8086 -91.1219 103° East 430 495 40,100 900 Climbing Chicago Center
03:54PM 42.7822 -90.9617 103° East 435 501 41,000 420 Climbing Chicago Center
03:55PM 42.7542 -90.7961 103° East 449 517 41,000  Level Chicago Center
03:56PM 42.7172 -90.5897 104° East 470 541 41,000  Level Chicago Center
03:57PM 42.6856 -90.4142 104° East 480 552 41,000 -60 Level Chicago Center
03:58PM 42.6542 -90.2378 104° East 482 555 40,900 -420 Descending Chicago Center
03:59PM 42.6239 -90.0628 103° East 480 552 40,200 -780 Descending Chicago Center
04:00PM 42.5872 -89.8614 104° East 471 542 39,300 -840 Descending Chicago Center
04:01PM 42.5561 -89.6939 104° East 463 533 38,500 -840 Descending Chicago Center
04:02PM 42.5233 -89.5192 104° East 476 548 37,600 -900 Descending Chicago Center
04:03PM 42.4914 -89.3472 104° East 474 545 36,700 -1,140 Descending Chicago Center
04:04PM 42.4597 -89.1792 104° East 463 533 35,300 -1,500 Descending Chicago Center
04:05PM 42.4219 -88.9756 104° East 465 535 33,600 -1,080 Descending Chicago Center
04:06PM 42.3892 -88.8064 105° East 467 537 33,100 -300 Descending Chicago Center
04:07PM 42.3558 -88.6344 105° East 474 545 33,000 -60 Descending Chicago Center
04:08PM 42.3278 -88.4642 103° East 476 548 33,000 -240 Level Chicago Center
04:09PM 42.3200 -88.2817 93° East 483 556 32,600 -840 Descending Chicago Center
04:10PM 42.3033 -88.0678 96° East 478 550 31,300 -1,500 Descending Chicago Center
04:11PM 42.2897 -87.8933 96° East 471 542 29,500 -1,800 Descending Chicago Center
04:12PM 42.2764 -87.7181 96° East 470 541 27,600 -1,920 Descending Chicago Center
04:13PM 42.2633 -87.5431 96° East 469 540 25,600 -1,920 Descending Chicago Center
04:14PM 42.2489 -87.3722 96° East 462 532 23,700 -1,920 Descending Chicago Center
04:15PM 42.2047 -87.2283 112° Southeast 421 484 21,700 -1,500 Descending Chicago Center
04:16PM 42.1464 -87.0558 114° Southeast 420 483 20,600 -840 Descending Chicago Center
04:17PM 42.0975 -86.9136 115° Southeast 418 481 20,000 -300 Descending Chicago Center
04:18PM 42.0461 -86.7792 117° Southeast 407 468 20,000 -780 Level Chicago Center
04:19PM 41.9869 -86.6419 120° Southeast 403 464 18,500 -2,040 Descending Chicago Center
04:20PM 41.9353 -86.5169 119° Southeast 390 449 15,800 -3,000 Descending Chicago Center
04:21PM 41.8897 -86.4042 118° Southeast 356 410 12,400 -3,360 Descending Chicago Center
04:23PM 41.8469 -86.2947 118° Southeast 338 389 8,900 -3,300 Descending Chicago Center
04:24PM 41.8203 -86.1831 108° East 323 372 5,600 -2,940 Descending Chicago Center
04:25PM 41.8186 -86.0467 91° East 312 359 2,900 -1,800 Descending Chicago Center
04:26PM 41.7822 -86.0044 139° Southeast 241 277 1,900 -840 Descending Chicago Center
04:27PM 41.7400 -85.9981 174° South 187 215 1,200 -420 Descending Chicago Center
04:28PM 41.7031 -85.9906 171° South 177 204 1,100 -120 Descending Chicago Center